Temp     Hi    Low   Out    Dew  Wind  Wind   Wind    Hi    Hi   Wind   Heat    THW                Rain    Heat    Cool    In     In    In     In     In   In Air   Temp  Wind  Wind    ISS   Arc.
  Date    Time     Out   Temp   Temp   Hum    Pt. Speed   Dir    Run Speed   Dir  Chill  Index  Index   Bar    Rain  Rate    D-D     D-D    Temp   Hum    Dew   Heat    EMC Density    2nd  Samp   Tx   Recept  Int.
----------------------------------------------------------------------------------------------------------------------------------------------------------------------------------------------------------------------
27/09/20 12:10a    5.8    5.9    5.8    71    0.9   0.0   ---   0.00   0.0   ---    5.8    5.4    5.4  1015.1  0.00   0.0   0.087   0.000   14.0    39    0.2   12.6   7.65 1.2246     ---   170    1     74.6   10 
27/09/20 12:20a    5.8    5.8    5.8    71    0.9   0.0   ---   0.00   0.0   ---    5.8    5.4    5.4  1015.1  0.00   0.0   0.087   0.000   13.9    39    0.2   12.5   7.65 1.2249     ---   163    1     71.5   10 
27/09/20 12:30a    5.7    5.8    5.7    71    0.9   0.0   ---   0.00   0.0   ---    5.7    5.4    5.4  1015.1  0.00   0.0   0.088   0.000   13.9    39    0.2   12.5   7.65 1.2249     ---   174    1     76.3   10 
27/09/20 12:40a    5.6    5.7    5.6    72    0.9   0.0   ---   0.00   0.0   ---    5.6    5.3    5.3  1015.1  0.00   0.0   0.089   0.000   13.8    40    0.4   12.4   7.85 1.2252     ---   173    1     75.9   10 
27/09/20 12:50a    5.5    5.6    5.5    73    1.0   0.0   ---   0.00   0.0   ---    5.5    5.2    5.2  1015.2  0.00   0.0   0.089   0.000   13.8    40    0.4   12.4   7.85 1.2253     ---   145    1     63.6   10 
27/09/20  1:00a    5.5    5.5    5.4    74    1.2   0.0   ---   0.00   0.0   ---    5.5    5.3    5.3  1015.2  0.00   0.0   0.089   0.000   13.8    40    0.4   12.4   7.85 1.2255     ---   146    1     64.0   10 
27/09/20  1:10a    5.5    5.5    5.5    74    1.2   0.0   ---   0.00   0.0   ---    5.5    5.3    5.3  1015.2  0.00   0.0   0.089   0.000   13.8    39    0.0   12.3   7.65 1.2257     ---   168    1     73.7   10 
27/09/20  1:20a    5.4    5.5    5.4    75    1.3   0.0   ---   0.00   0.0   ---    5.4    5.2    5.2  1015.1  0.00   0.0   0.090   0.000   13.8    39    0.0   12.3   7.65 1.2256     ---   177    1     77.6   10 
27/09/20  1:30a    5.4    5.4    5.4    75    1.3   0.0   ---   0.00   0.0   ---    5.4    5.2    5.2  1015.0  0.00   0.0   0.090   0.000   13.7    39   -0.1   12.2   7.65 1.2261     ---   173    1     75.9   10 
27/09/20  1:40a    5.5    5.5    5.4    76    1.6   0.0   ---   0.00   0.0   ---    5.5    5.3    5.3  1015.0  0.00   0.0   0.089   0.000   13.7    39   -0.1   12.2   7.65 1.2261     ---   176    1     77.2   10 
27/09/20  1:50a    5.4    5.5    5.4    77    1.7   0.0   ---   0.00   0.0   ---    5.4    5.2    5.2  1014.9  0.00   0.0   0.090   0.000   13.6    39   -0.1   12.2   7.65 1.2262     ---   174    1     76.3   10 
27/09/20  2:00a    5.4    5.4    5.4    76    1.5   0.0   ---   0.00   0.0   ---    5.4    5.2    5.2  1014.9  0.00   0.0   0.090   0.000   13.6    39   -0.1   12.2   7.65 1.2262     ---   170    1     74.6   10 
27/09/20  2:10a    5.4    5.4    5.4    76    1.5   0.0   ---   0.00   0.0   ---    5.4    5.2    5.2  1014.9  0.00   0.0   0.090   0.000   13.6    39   -0.2   12.1   7.65 1.2265     ---   170    1     74.6   10 
27/09/20  2:20a    5.3    5.4    5.3    76    1.4   0.0   ---   0.00   0.0   ---    5.3    5.1    5.1  1014.6  0.00   0.0   0.090   0.000   13.6    39   -0.2   12.1   7.65 1.2261     ---   172    1     75.4   10 
27/09/20  2:30a    5.2    5.3    5.2    76    1.3   0.0   ---   0.00   0.0   ---    5.2    5.0    5.0  1014.9  0.00   0.0   0.091   0.000   13.6    39   -0.2   12.1   7.65 1.2264     ---   173    1     75.9   10 
27/09/20  2:40a    5.3    5.3    5.2    76    1.4   0.0   ---   0.00   0.0   ---    5.3    5.1    5.1  1014.9  0.00   0.0   0.090   0.000   13.4    39   -0.3   12.0   7.65 1.2270     ---   148    1     64.9   10 
27/09/20  2:50a    5.4    5.4    5.3    76    1.5   0.0   ---   0.00   0.0   ---    5.4    5.2    5.2  1014.7  0.00   0.0   0.090   0.000   13.4    40    0.1   12.1   7.85 1.2266     ---   143    1     62.7   10 
27/09/20  3:00a    5.6    5.6    5.4    76    1.7   0.0   ---   0.00   0.0   ---    5.6    5.3    5.3  1014.9  0.00   0.0   0.089   0.000   13.4    40    0.0   12.0   7.85 1.2270     ---   169    1     74.1   10 
27/09/20  3:10a    5.7    5.7    5.6    76    1.8   0.0   ---   0.00   0.0   ---    5.7    5.4    5.4  1014.9  0.00   0.0   0.088   0.000   13.4    40    0.0   12.0   7.85 1.2270     ---   179    1     78.5   10 
27/09/20  3:20a    5.8    5.8    5.7    75    1.7   0.0   ---   0.00   0.0   ---    5.8    5.6    5.6  1015.1  0.00   0.0   0.087   0.000   13.4    40    0.0   12.0   7.85 1.2274     ---   131    1     57.5   10 
27/09/20  3:30a    5.8    5.8    5.8    74    1.5   0.0   ---   0.00   0.0   ---    5.8    5.6    5.6  1015.1  0.00   0.0   0.087   0.000   13.4    40    0.0   12.0   7.85 1.2273     ---   152    1     66.7   10 
27/09/20  3:40a    5.5    5.8    5.5    75    1.4   0.0   ---   0.00   0.0   ---    5.5    5.3    5.3  1015.1  0.00   0.0   0.089   0.000   13.4    40    0.0   12.0   7.85 1.2273     ---   171    1     75.0   10 
27/09/20  3:50a    5.2    5.5    5.2    77    1.5   0.0   ---   0.00   0.0   ---    5.2    4.9    4.9  1015.2  0.00   0.0   0.091   0.000   13.4    40    0.0   12.0   7.85 1.2275     ---   177    1     77.6   10 
27/09/20  4:00a    4.9    5.2    4.9    78    1.4   0.0   ---   0.00   0.0   ---    4.9    4.8    4.8  1015.6  0.00   0.0   0.093   0.000   13.3    40   -0.1   11.9   7.85 1.2285     ---   171    1     75.0   10 
27/09/20  4:10a    4.7    4.8    4.7    78    1.2   0.0   ---   0.00   0.0   ---    4.7    4.4    4.4  1015.6  0.00   0.0   0.095   0.000   13.3    40   -0.1   11.9   7.85 1.2285     ---   174    1     76.3   10 
27/09/20  4:20a    4.7    4.7    4.7    79    1.3   0.0   ---   0.00   0.0   ---    4.7    4.5    4.5  1015.9  0.00   0.0   0.095   0.000   13.3    40   -0.1   11.9   7.85 1.2288     ---   167    1     73.2   10 
27/09/20  4:30a    4.6    4.7    4.6    79    1.3   0.0   ---   0.00   0.0   ---    4.6    4.4    4.4  1016.1  0.00   0.0   0.095   0.000   13.2    40   -0.1   11.8   7.85 1.2293     ---   154    1     67.5   10 
27/09/20  4:40a    4.4    4.6    4.4    79    1.1   0.0   ---   0.00   0.0   ---    4.4    4.3    4.3  1016.1  0.00   0.0   0.096   0.000   13.2    40   -0.1   11.8   7.85 1.2293     ---   138    1     60.5   10 
27/09/20  4:50a    4.4    4.4    4.4    80    1.2   0.0   ---   0.00   0.0   ---    4.4    4.2    4.2  1016.3  0.00   0.0   0.097   0.000   13.1    40   -0.2   11.8   7.85 1.2300     ---   176    1     77.2   10 
27/09/20  5:00a    4.2    4.3    4.2    80    1.1   0.0   ---   0.00   0.0   ---    4.2    4.1    4.1  1016.4  0.00   0.0   0.098   0.000   13.1    40   -0.2   11.8   7.85 1.2302     ---   174    1     76.3   10 
27/09/20  5:10a    4.1    4.2    4.1    80    0.9   0.0   ---   0.00   0.0   ---    4.1    3.9    3.9  1016.4  0.00   0.0   0.099   0.000   13.1    40   -0.3   11.7   7.85 1.2304     ---   170    1     74.6   10 
27/09/20  5:20a    4.0    4.1    4.0    81    1.0   0.0   ---   0.00   0.0   ---    4.0    3.8    3.8  1016.8  0.00   0.0   0.100   0.000   13.1    40   -0.3   11.7   7.85 1.2309     ---   165    1     72.4   10 
27/09/20  5:30a    3.9    4.0    3.9    81    0.9   0.0   ---   0.00   0.0   ---    3.9    3.7    3.7  1017.1  0.00   0.0   0.100   0.000   13.1    40   -0.3   11.7   7.85 1.2313     ---   172    1     75.4   10 
27/09/20  5:40a    3.9    3.9    3.9    82    1.1   0.0   ---   0.00   0.0   ---    3.9    3.7    3.7  1017.1  0.00   0.0   0.100   0.000   12.9    40   -0.4   11.6   7.85 1.2319     ---   169    1     74.1   10 
27/09/20  5:50a    3.9    3.9    3.8    82    1.1   0.0   ---   0.00   0.0   ---    3.9    3.7    3.7  1017.2  0.00   0.0   0.100   0.000   12.9    40   -0.4   11.6   7.85 1.2320     ---   164    1     71.9   10 
27/09/20  6:00a    3.8    3.9    3.8    82    1.0   0.0   ---   0.00   0.0   ---    3.8    3.7    3.7  1017.6  0.00   0.0   0.101   0.000   12.9    40   -0.4   11.6   7.85 1.2327     ---   166    1     72.8   10 
27/09/20  6:10a    3.7    3.8    3.7    82    0.9   0.0   ---   0.00   0.0   ---    3.7    3.5    3.5  1017.6  0.00   0.0   0.102   0.000   12.9    40   -0.4   11.6   7.85 1.2327     ---   171    1     75.0   10 
27/09/20  6:20a    3.7    3.7    3.7    83    1.0   0.0   ---   0.00   0.0   ---    3.7    3.6    3.6  1018.2  0.00   0.0   0.102   0.000   12.8    40   -0.5   11.5   7.85 1.2340     ---   156    1     68.4   10 
27/09/20  6:30a    4.2    4.2    3.7    84    1.8   0.0   ---   0.00   0.0   ---    4.2    4.1    4.1  1017.7  0.00   0.0   0.098   0.000   12.8    40   -0.5   11.5   7.85 1.2335     ---   137    1     60.1   10 
27/09/20  6:40a    4.7    4.7    4.3    82    1.9   0.0   ---   0.00   0.0   ---    4.7    4.5    4.5  1017.7  0.00   0.0   0.095   0.000   12.9    40   -0.4   11.6   7.85 1.2329     ---   156    1     68.4   10 
27/09/20  6:50a    5.0    5.0    4.7    81    2.0   0.0   ---   0.00   0.0   ---    5.0    4.8    4.8  1017.8  0.00   0.0   0.093   0.000   12.9    40   -0.4   11.6   7.85 1.2327     ---   189    1     82.9   10 
27/09/20  7:00a    5.2    5.2    5.0    80    2.1   0.0   ---   0.00   0.0   ---    5.2    5.1    5.1  1018.5  0.00   0.0   0.091   0.000   13.2    40   -0.1   11.8   7.85 1.2322     ---   171    1     75.0   10 
27/09/20  7:10a    5.7    5.7    5.3    79    2.3   0.0   ---   0.00   0.0   ---    5.7    5.5    5.5  1018.5  0.00   0.0   0.088   0.000   13.4    40    0.1   12.1   7.85 1.2311     ---   179    1     78.5   10 
27/09/20  7:20a    5.9    5.9    5.7    78    2.3   0.0   ---   0.00   0.0   ---    5.9    5.7    5.7  1018.6  0.00   0.0   0.086   0.000   13.7    40    0.3   12.3   7.85 1.2302     ---   172    1     75.4   10 
27/09/20  7:30a    6.1    6.1    5.9    78    2.6   0.0   ---   0.00   0.0   ---    6.1    5.9    5.9  1018.5  0.00   0.0   0.085   0.000   14.0    40    0.6   12.6   7.85 1.2286     ---   171    1     75.0   10 
27/09/20  7:40a    6.4    6.4    6.2    78    2.9   0.0   ---   0.00   0.0   ---    6.4    6.3    6.3  1018.5  0.00   0.0   0.083   0.000   14.3    39    0.5   12.8   7.65 1.2274     ---   170    1     74.6   10 
27/09/20  7:50a    6.8    6.8    6.4    77    3.0   0.0   ---   0.00   0.0   ---    6.8    6.6    6.6  1019.1  0.00   0.0   0.080   0.000   14.6    39    0.8   13.1   7.65 1.2265     ---   173    1     75.9   10 
27/09/20  8:00a    6.9    6.9    6.8    76    2.9   0.0   ---   0.00   0.0   ---    6.9    6.7    6.7  1019.4  0.00   0.0   0.079   0.000   14.9    38    0.7   13.3   7.53 1.2258     ---   167    1     73.2   10 
27/09/20  8:10a    7.3    7.3    7.0    76    3.4   0.0   ---   0.00   0.0   ---    7.3    7.1    7.1  1019.4  0.00   0.0   0.076   0.000   15.1    38    0.9   13.5   7.53 1.2247     ---   154    1     67.5   10 
27/09/20  8:20a    7.7    7.7    7.3    74    3.4   0.0   ---   0.00   0.0   ---    7.7    7.5    7.5  1019.4  0.00   0.0   0.074   0.000   15.3    38    1.0   13.7   7.54 1.2240     ---   140    1     61.4   10 
27/09/20  8:30a    8.1    8.1    7.7    71    3.2   0.0   ---   0.00   0.0   ---    8.1    7.8    7.8  1019.4  0.00   0.0   0.071   0.000   15.6    37    0.9   13.9   7.35 1.2228     ---   166    1     72.8   10 
27/09/20  8:40a    8.8    8.8    8.2    70    3.6   0.0   ---   0.00   0.0   ---    8.8    8.5    8.5  1019.4  0.00   0.0   0.066   0.000   15.7    37    1.1   14.1   7.35 1.2220     ---   171    1     75.0   10 
27/09/20  8:50a    9.6    9.6    8.8    66    3.5   0.0   ---   0.00   0.0   ---    9.6    9.2    9.2  1019.6  0.00   0.0   0.061   0.000   15.9    37    1.2   14.2   7.35 1.2215     ---   170    1     74.6   10 
27/09/20  9:00a   10.1   10.1    9.6    66    4.0   0.0   ---   0.00   0.0   ---   10.1    9.8    9.8  1019.7  0.00   0.0   0.057   0.000   16.1    37    1.4   14.4   7.35 1.2208     ---   168    1     73.7   10 
27/09/20  9:10a   10.6   10.6   10.1    63    3.9   0.0   ---   0.00   0.0   ---   10.6   10.2   10.2  1019.7  0.00   0.0   0.054   0.000   16.2    36    1.1   14.4   7.23 1.2205     ---   168    1     73.7   10 
27/09/20  9:20a   10.8   10.9   10.7    57    2.6   0.0   ---   0.00   0.0   ---   10.8   10.2   10.2  1019.5  0.00   0.0   0.052   0.000   16.2    36    1.1   14.5   7.23 1.2200     ---   164    1     71.9   10 
27/09/20  9:30a   10.5   10.8   10.5    58    2.6   0.0   ---   0.00   0.0   ---   10.5    9.9    9.9  1019.8  0.00   0.0   0.054   0.000   16.3    36    1.2   14.6   7.22 1.2199     ---   171    1     75.0   10 
27/09/20  9:40a   11.2   11.2   10.5    55    2.5   0.0   ---   0.00   0.0   ---   11.2   10.5   10.5  1019.8  0.00   0.0   0.050   0.000   16.3    36    1.2   14.6   7.22 1.2199     ---   166    1     72.8   10 
27/09/20  9:50a   11.8   11.8   11.2    57    3.6   0.0   ---   0.00   0.0   ---   11.8   11.1   11.1  1019.6  0.00   0.0   0.045   0.000   16.4    36    1.3   14.7   7.22 1.2193     ---   153    1     67.1   10 
27/09/20 10:00a   12.6   12.6   11.8    56    4.0   0.0   ---   0.00   0.0   ---   12.6   11.8   11.8  1019.5  0.00   0.0   0.040   0.000   16.5    36    1.4   14.8   7.22 1.2187     ---   135    1     59.2   10 
27/09/20 10:10a   13.1   13.2   12.7    50    2.9   0.0   ---   0.00   0.0   ---   13.1   12.1   12.1  1019.5  0.00   0.0   0.037   0.000   16.5    36    1.4   14.8   7.22 1.2187     ---   176    1     77.2   10 
27/09/20 10:20a   13.6   13.6   13.1    48    2.7   0.0   ---   0.00   0.0   ---   13.6   12.4   12.4  1019.5  0.00   0.0   0.033   0.000   16.6    36    1.5   14.9   7.21 1.2182     ---   178    1     78.1   10 
27/09/20 10:30a   13.7   13.9   13.6    47    2.6   0.0   ---   0.00   0.0   ---   13.7   12.6   12.6  1019.4  0.00   0.0   0.032   0.000   16.6    36    1.5   14.9   7.21 1.2181     ---   173    1     75.9   10 
27/09/20 10:40a   13.2   13.7   13.2    48    2.4   0.0   ---   0.00   0.0   ---   13.2   12.1   12.1  1019.4  0.00   0.0   0.036   0.000   16.6    36    1.5   14.9   7.21 1.2181     ---   174    1     76.3   10 
27/09/20 10:50a   12.7   13.2   12.7    53    3.4   0.0   ---   0.00   0.0   ---   12.7   11.8   11.8  1019.6  0.00   0.0   0.039   0.000   16.7    36    1.5   14.9   7.21 1.2181     ---   170    1     74.6   10 
27/09/20 11:00a   12.2   12.7   12.2    54    3.2   0.0   ---   0.00   0.0   ---   12.2   11.4   11.4  1019.9  0.00   0.0   0.042   0.000   16.7    36    1.5   14.9   7.21 1.2184     ---   178    1     78.1   10 
27/09/20 11:10a   12.8   12.8   12.2    56    4.3   0.0   ---   0.00   0.0   ---   12.8   12.0   12.0  1019.9  0.00   0.0   0.038   0.000   16.7    36    1.5   14.9   7.21 1.2184     ---   171    1     75.0   10 
27/09/20 11:20a   13.4   13.4   12.8    51    3.4   0.0   ---   0.00   0.0   ---   13.4   12.4   12.4  1019.7  0.00   0.0   0.034   0.000   16.7    36    1.5   14.9   7.21 1.2182     ---   158    1     69.3   10 
27/09/20 11:30a   13.5   13.8   13.4    49    3.0   0.0   ---   0.00   0.0   ---   13.5   12.4   12.4  1019.5  0.00   0.0   0.034   0.000   16.7    36    1.5   14.9   7.21 1.2180     ---   128    1     56.1   10 
27/09/20 11:40a   13.0   13.5   13.0    52    3.4   0.0   ---   0.00   0.0   ---   13.0   12.1   12.1  1019.5  0.00   0.0   0.037   0.000   16.7    36    1.5   14.9   7.21 1.2180     ---   170    1     74.6   10 
27/09/20 11:50a   12.5   13.0   12.5    54    3.4   0.0   ---   0.00   0.0   ---   12.5   11.7   11.7  1019.6  0.00   0.0   0.041   0.000   16.7    36    1.5   14.9   7.21 1.2181     ---   175    1     76.8   10 
27/09/20 12:00p   12.3   12.5   12.3    57    4.0   0.0   ---   0.00   0.0   ---   12.3   11.6   11.6  1019.8  0.00   0.0   0.042   0.000   16.7    36    1.5   14.9   7.21 1.2183     ---   175    1     76.8   10 
27/09/20 12:10p   12.2   12.4   12.2    56    3.7   0.0   ---   0.00   0.0   ---   12.2   11.4   11.4  1019.8  0.00   0.0   0.042   0.000   16.7    36    1.5   14.9   7.21 1.2183     ---   171    1     75.0   10 
27/09/20 12:20p   12.0   12.2   12.0    56    3.5   0.0   ---   0.00   0.0   ---   12.0   11.2   11.2  1019.7  0.00   0.0   0.044   0.000   16.6    36    1.5   14.9   7.21 1.2185     ---   164    1     71.9   10 
27/09/20 12:30p   11.8   12.0   11.8    57    3.6   0.0   ---   0.00   0.0   ---   11.8   11.1   11.1  1019.8  0.00   0.0   0.045   0.000   16.6    36    1.5   14.9   7.21 1.2185     ---   170    1     74.6   10 
27/09/20 12:40p   12.3   12.3   11.8    58    4.3   0.0   ---   0.00   0.0   ---   12.3   11.6   11.6  1019.8  0.00   0.0   0.042   0.000   16.6    36    1.5   14.9   7.21 1.2185     ---   168    1     73.7   10 
27/09/20 12:50p   13.1   13.1   12.4    56    4.5   0.0   ---   0.00   0.0   ---   13.1   12.2   12.2  1019.6  0.00   0.0   0.037   0.000   16.6    37    1.8   14.9   7.35 1.2180     ---   161    1     70.6   10 
27/09/20  1:00p   13.7   13.7   13.1    54    4.6   0.0   ---   0.00   0.0   ---   13.7   12.8   12.8  1019.3  0.00   0.0   0.032   0.000   16.6    37    1.8   14.9   7.35 1.2177     ---   140    1     61.4   10 
27/09/20  1:10p   13.9   14.1   13.7    51    3.9   0.0   ---   0.00   0.0   ---   13.9   12.9   12.9  1019.3  0.00   0.0   0.031   0.000   16.7    37    1.9   15.0   7.35 1.2174     ---   169    1     74.1   10 
27/09/20  1:20p   13.7   13.9   13.7    51    3.7   0.0   ---   0.00   0.0   ---   13.7   12.7   12.7  1019.2  0.00   0.0   0.032   0.000   16.7    37    1.9   15.0   7.35 1.2173     ---   170    1     74.6   10 
27/09/20  1:30p   13.2   13.7   13.2    56    4.6   0.0   ---   0.00   0.0   ---   13.2   12.4   12.4  1019.2  0.00   0.0   0.035   0.000   16.7    37    1.9   15.0   7.35 1.2174     ---   174    1     76.3   10 
27/09/20  1:40p   13.3   13.3   13.2    55    4.5   0.0   ---   0.00   0.0   ---   13.3   12.4   12.4  1019.2  0.00   0.0   0.035   0.000   16.8    37    2.0   15.1   7.35 1.2168     ---   173    1     75.9   10 
27/09/20  1:50p   13.1   13.3   13.1    57    4.7   0.0   ---   0.00   0.0   ---   13.1   12.3   12.3  1019.2  0.00   0.0   0.037   0.000   16.8    37    2.0   15.1   7.35 1.2168     ---   169    1     74.1   10 
27/09/20  2:00p   13.2   13.2   13.1    54    4.1   0.0   ---   0.00   0.0   ---   13.2   12.3   12.3  1019.2  0.00   0.0   0.035   0.000   16.8    37    2.0   15.1   7.35 1.2168     ---   172    1     75.4   10 
27/09/20  2:10p   13.1   13.2   13.0    55    4.2   0.0   ---   0.00   0.0   ---   13.1   12.2   12.2  1019.2  0.00   0.0   0.037   0.000   16.8    37    2.0   15.1   7.35 1.2168     ---   174    1     76.3   10 
27/09/20  2:20p   13.2   13.2   13.1    54    4.1   0.0   ---   0.00   0.0   ---   13.2   12.3   12.3  1019.2  0.00   0.0   0.036   0.000   16.8    37    2.0   15.1   7.35 1.2168     ---   166    1     72.8   10 
27/09/20  2:30p   13.6   13.6   13.2    57    5.2   0.0   ---   0.00   0.0   ---   13.6   12.7   12.7  1019.1  0.00   0.0   0.033   0.000   16.8    37    2.0   15.2   7.35 1.2164     ---   139    1     61.0   10 
27/09/20  2:40p   13.8   13.8   13.6    53    4.4   0.0   ---   0.00   0.0   ---   13.8   12.8   12.8  1019.1  0.00   0.0   0.032   0.000   16.8    37    2.0   15.2   7.35 1.2164     ---   165    1     72.4   10 
27/09/20  2:50p   13.8   13.8   13.7    54    4.6   0.0   ---   0.00   0.0   ---   13.8   12.8   12.8  1019.2  0.00   0.0   0.032   0.000   16.8    37    2.0   15.2   7.35 1.2165     ---   181    1     79.4   10 
27/09/20  3:00p   13.9   13.9   13.7    52    4.2   0.0   ---   0.00   0.0   ---   13.9   12.9   12.9  1019.3  0.00   0.0   0.031   0.000   16.9    38    2.5   15.3   7.55 1.2159     ---   164    1     71.9   10 
27/09/20  3:10p   14.5   14.5   13.9    52    4.8   0.0   ---   0.00   0.0   ---   14.5   13.5   13.5  1019.3  0.00   0.0   0.027   0.000   17.0    38    2.6   15.4   7.55 1.2156     ---   171    1     75.0   10 
27/09/20  3:20p   14.9   14.9   14.5    52    5.1   0.0   ---   0.00   0.0   ---   14.9   13.9   13.9  1019.3  0.00   0.0   0.024   0.000   17.0    38    2.6   15.4   7.55 1.2156     ---   170    1     74.6   10 
27/09/20  3:30p   14.8   14.9   14.8    54    5.6   0.0   ---   0.00   0.0   ---   14.8   13.9   13.9  1019.2  0.00   0.0   0.024   0.000   17.1    38    2.7   15.5   7.55 1.2150     ---   172    1     75.4   10 
27/09/20  3:40p   14.1   14.8   14.1    53    4.7   0.0   ---   0.00   0.0   ---   14.1   13.2   13.2  1019.2  0.00   0.0   0.029   0.000   17.1    38    2.7   15.5   7.55 1.2150     ---   173    1     75.9   10 
27/09/20  3:50p   13.5   14.1   13.5    54    4.4   0.0   ---   0.00   0.0   ---   13.5   12.6   12.6  1019.4  0.00   0.0   0.034   0.000   17.1    38    2.7   15.5   7.55 1.2153     ---   166    1     72.8   10 
27/09/20  4:00p   13.4   13.4   13.2    56    4.8   0.0   ---   0.00   0.0   ---   13.4   12.6   12.6  1019.5  0.00   0.0   0.034   0.000   17.2    38    2.8   15.6   7.55 1.2149     ---   143    1     62.7   10 
27/09/20  4:10p   13.2   13.4   13.2    55    4.4   0.0   ---   0.00   0.0   ---   13.2   12.3   12.3  1019.5  0.00   0.0   0.035   0.000   17.2    38    2.8   15.6   7.55 1.2149     ---   156    1     68.4   10 
27/09/20  4:20p   13.3   13.3   13.2    55    4.5   0.0   ---   0.00   0.0   ---   13.3   12.4   12.4  1019.6  0.00   0.0   0.035   0.000   17.2    38    2.8   15.6   7.55 1.2149     ---   189    1     82.9   10 
27/09/20  4:30p   13.7   13.7   13.3    54    4.6   0.0   ---   0.00   0.0   ---   13.7   12.8   12.8  1019.7  0.00   0.0   0.032   0.000   17.2    38    2.8   15.6   7.55 1.2151     ---   168    1     73.7   10 
27/09/20  4:40p   13.4   13.7   13.4    53    4.0   0.0   ---   0.00   0.0   ---   13.4   12.4   12.4  1019.7  0.00   0.0   0.034   0.000   17.2    38    2.8   15.6   7.55 1.2151     ---   172    1     75.4   10 
27/09/20  4:50p   13.2   13.4   13.2    54    4.1   0.0   ---   0.00   0.0   ---   13.2   12.3   12.3  1019.9  0.00   0.0   0.036   0.000   17.2    38    2.8   15.6   7.55 1.2153     ---   169    1     74.1   10 
27/09/20  5:00p   12.9   13.2   12.9    54    3.8   0.0   ---   0.00   0.0   ---   12.9   12.0   12.0  1020.2  0.00   0.0   0.038   0.000   17.2    38    2.8   15.6   7.55 1.2156     ---   178    1     78.1   10 
27/09/20  5:10p   12.5   12.9   12.5    55    3.7   0.0   ---   0.00   0.0   ---   12.5   11.7   11.7  1020.2  0.00   0.0   0.041   0.000   17.1    38    2.7   15.5   7.55 1.2162     ---   172    1     75.4   10 
27/09/20  5:20p   11.7   12.5   11.7    58    3.7   0.0   ---   0.00   0.0   ---   11.7   11.0   11.0  1020.6  0.00   0.0   0.046   0.000   17.1    38    2.7   15.5   7.55 1.2166     ---   164    1     71.9   10 
27/09/20  5:30p   11.1   11.7   11.1    61    3.9   0.0   ---   0.00   0.0   ---   11.1   10.6   10.6  1021.0  0.00   0.0   0.050   0.000   17.0    38    2.6   15.4   7.55 1.2176     ---   140    1     61.4   10 
27/09/20  5:40p   10.8   11.1   10.8    62    3.8   0.0   ---   0.00   0.0   ---   10.8   10.3   10.3  1021.0  0.00   0.0   0.052   0.000   17.0    38    2.6   15.4   7.55 1.2176     ---   152    1     66.7   10 
27/09/20  5:50p   10.3   10.8   10.3    62    3.4   0.0   ---   0.00   0.0   ---   10.3    9.9    9.9  1021.1  0.00   0.0   0.056   0.000   16.9    38    2.5   15.3   7.55 1.2181     ---   186    1     81.6   10 
27/09/20  6:00p   10.1   10.3   10.1    64    3.6   0.0   ---   0.00   0.0   ---   10.1    9.7    9.7  1021.6  0.00   0.0   0.057   0.000   16.9    38    2.5   15.3   7.55 1.2186     ---   178    1     78.1   10 
27/09/20  6:10p    9.7   10.1    9.7    65    3.5   0.0   ---   0.00   0.0   ---    9.7    9.4    9.4  1021.6  0.00   0.0   0.060   0.000   16.8    38    2.4   15.2   7.55 1.2191     ---   173    1     75.9   10 
27/09/20  6:20p    9.4    9.7    9.4    67    3.6   0.0   ---   0.00   0.0   ---    9.4    9.1    9.1  1021.6  0.00   0.0   0.062   0.000   16.8    38    2.4   15.2   7.55 1.2194     ---   160    1     70.2   10 
27/09/20  6:30p    9.1    9.4    9.1    68    3.5   0.0   ---   0.00   0.0   ---    9.1    8.7    8.7  1021.9  0.00   0.0   0.064   0.000   16.7    38    2.3   15.1   7.55 1.2203     ---   170    1     74.6   10 
27/09/20  6:40p    8.7    9.1    8.7    69    3.3   0.0   ---   0.00   0.0   ---    8.7    8.4    8.4  1021.9  0.00   0.0   0.067   0.000   16.6    38    2.2   15.0   7.55 1.2206     ---   175    1     76.8   10 
27/09/20  6:50p    8.4    8.7    8.4    70    3.3   0.0   ---   0.00   0.0   ---    8.4    8.2    8.2  1022.0  0.00   0.0   0.069   0.000   16.6    38    2.2   15.0   7.55 1.2208     ---   176    1     77.2   10 
27/09/20  7:00p    8.2    8.4    8.2    70    3.1   0.0   ---   0.00   0.0   ---    8.2    7.9    7.9  1022.3  0.00   0.0   0.070   0.000   16.5    38    2.1   14.9   7.55 1.2215     ---   160    1     70.2   10 
27/09/20  7:10p    8.1    8.2    8.1    71    3.1   0.0   ---   0.00   0.0   ---    8.1    7.8    7.8  1022.3  0.00   0.0   0.071   0.000   16.4    39    2.4   14.8   7.68 1.2219     ---   146    1     64.0   10 
27/09/20  7:20p    7.8    7.9    7.8    71    2.9   0.0   ---   0.00   0.0   ---    7.8    7.6    7.6  1022.4  0.00   0.0   0.073   0.000   16.4    39    2.4   14.8   7.68 1.2220     ---   135    1     59.2   10 
27/09/20  7:30p    7.6    7.8    7.6    72    2.8   0.0   ---   0.00   0.0   ---    7.6    7.3    7.3  1022.6  0.00   0.0   0.075   0.000   16.3    39    2.3   14.8   7.68 1.2225     ---   191    1     83.8   10 
27/09/20  7:40p    7.2    7.6    7.2    74    2.9   0.0   ---   0.00   0.0   ---    7.2    7.0    7.0  1022.6  0.00   0.0   0.077   0.000   16.2    39    2.2   14.7   7.67 1.2231     ---   167    1     73.2   10 
27/09/20  7:50p    6.9    7.2    6.9    74    2.6   0.0   ---   0.00   0.0   ---    6.9    6.7    6.7  1022.9  0.00   0.0   0.079   0.000   16.2    39    2.2   14.6   7.67 1.2237     ---   175    1     76.8   10 
27/09/20  8:00p    6.7    6.9    6.7    75    2.5   0.0   ---   0.00   0.0   ---    6.7    6.4    6.4  1023.0  0.00   0.0   0.081   0.000   16.1    39    2.1   14.5   7.67 1.2243     ---   174    1     76.3   10 
27/09/20  8:10p    6.3    6.7    6.3    76    2.4   0.0   ---   0.00   0.0   ---    6.3    6.1    6.1  1023.0  0.00   0.0   0.083   0.000   16.1    39    2.1   14.5   7.67 1.2243     ---   170    1     74.6   10 
27/09/20  8:20p    6.1    6.3    6.1    76    2.1   0.0   ---   0.00   0.0   ---    6.1    5.8    5.8  1023.0  0.00   0.0   0.085   0.000   16.0    40    2.4   14.5   7.85 1.2244     ---   170    1     74.6   10 
27/09/20  8:30p    5.7    6.1    5.7    76    1.8   0.0   ---   0.00   0.0   ---    5.7    5.5    5.5  1023.1  0.00   0.0   0.088   0.000   15.9    40    2.3   14.4   7.85 1.2250     ---   175    1     76.8   10 
27/09/20  8:40p    5.4    5.7    5.4    77    1.7   0.0   ---   0.00   0.0   ---    5.4    5.2    5.2  1023.1  0.00   0.0   0.090   0.000   15.8    40    2.2   14.3   7.85 1.2256     ---   178    1     78.1   10 
27/09/20  8:50p    5.2    5.4    5.2    78    1.6   0.0   ---   0.00   0.0   ---    5.2    5.0    5.0  1023.2  0.00   0.0   0.091   0.000   15.7    40    2.1   14.2   7.85 1.2260     ---   168    1     73.7   10 
27/09/20  9:00p    4.9    5.2    4.9    78    1.4   0.0   ---   0.00   0.0   ---    4.9    4.8    4.8  1023.5  0.00   0.0   0.093   0.000   15.6    40    2.0   14.1   7.85 1.2269     ---   155    1     68.0   10 
27/09/20  9:10p    4.6    4.8    4.6    79    1.3   0.0   ---   0.00   0.0   ---    4.6    4.4    4.4  1023.5  0.00   0.0   0.095   0.000   15.6    40    2.0   14.1   7.85 1.2272     ---   137    1     60.1   10 
27/09/20  9:20p    4.4    4.6    4.4    80    1.3   0.0   ---   0.00   0.0   ---    4.4    4.3    4.3  1023.3  0.00   0.0   0.096   0.000   15.4    40    1.9   13.9   7.85 1.2275     ---   176    1     77.2   10 
27/09/20  9:30p    4.2    4.4    4.2    81    1.2   0.0   ---   0.00   0.0   ---    4.2    4.1    4.1  1023.5  0.00   0.0   0.098   0.000   15.4    40    1.8   13.9   7.85 1.2279     ---   172    1     75.4   10 
27/09/20  9:40p    4.2    4.2    4.2    83    1.6   0.0   ---   0.00   0.0   ---    4.2    4.1    4.1  1023.5  0.00   0.0   0.098   0.000   15.3    40    1.7   13.8   7.85 1.2285     ---   174    1     76.3   10 
27/09/20  9:50p    4.2    4.2    4.2    84    1.8   0.0   ---   0.00   0.0   ---    4.2    4.1    4.1  1023.6  0.00   0.0   0.098   0.000   15.2    40    1.7   13.7   7.85 1.2289     ---   175    1     76.8   10 
27/09/20 10:00p    4.3    4.3    4.2    85    2.0   0.0   ---   0.00   0.0   ---    4.3    4.2    4.2  1023.7  0.00   0.0   0.098   0.000   15.1    40    1.6   13.6   7.85 1.2296     ---   167    1     73.2   10 
27/09/20 10:10p    4.1    4.3    4.1    85    1.8   0.0   ---   0.00   0.0   ---    4.1    4.0    4.0  1023.7  0.00   0.0   0.099   0.000   15.1    40    1.5   13.6   7.85 1.2298     ---   176    1     77.2   10 
27/09/20 10:20p    4.1    4.1    4.1    85    1.8   0.0   ---   0.00   0.0   ---    4.1    3.9    3.9  1023.8  0.00   0.0   0.099   0.000   15.1    40    1.5   13.6   7.85 1.2299     ---   172    1     75.4   10 
27/09/20 10:30p    4.1    4.1    4.1    86    2.0   0.0   ---   0.00   0.0   ---    4.1    4.0    4.0  1023.9  0.00   0.0   0.099   0.000   14.9    40    1.4   13.4   7.85 1.2305     ---   169    1     74.1   10 
27/09/20 10:40p    4.1    4.2    4.1    86    2.0   0.0   ---   0.00   0.0   ---    4.1    4.0    4.0  1023.9  0.00   0.0   0.099   0.000   14.9    40    1.4   13.4   7.85 1.2308     ---   172    1     75.4   10 
27/09/20 10:50p    4.1    4.1    4.1    86    1.9   0.0   ---   0.00   0.0   ---    4.1    3.9    3.9  1023.8  0.00   0.0   0.099   0.000   14.8    40    1.3   13.3   7.85 1.2312     ---   152    1     66.7   10 
27/09/20 11:00p    4.0    4.1    4.0    86    1.9   0.0   ---   0.00   0.0   ---    4.0    3.9    3.9  1023.8  0.00   0.0   0.100   0.000   14.7    40    1.2   13.2   7.85 1.2315     ---   142    1     62.3   10 
27/09/20 11:10p    3.9    4.0    3.9    86    1.8   0.0   ---   0.00   0.0   ---    3.9    3.8    3.8  1023.8  0.00   0.0   0.100   0.000   14.6    40    1.1   13.2   7.85 1.2321     ---   129    1     56.6   10 
27/09/20 11:20p    3.7    3.8    3.7    86    1.6   0.0   ---   0.00   0.0   ---    3.7    3.6    3.6  1023.9  0.00   0.0   0.101   0.000   14.6    40    1.1   13.2   7.85 1.2322     ---   190    1     83.3   10 
27/09/20 11:30p    3.5    3.7    3.5    86    1.4   0.0   ---   0.00   0.0   ---    3.5    3.4    3.4  1023.8  0.00   0.0   0.103   0.000   14.6    40    1.1   13.1   7.85 1.2323     ---   175    1     76.8   10 
27/09/20 11:40p    3.3    3.5    3.3    86    1.2   0.0   ---   0.00   0.0   ---    3.3    3.2    3.2  1023.8  0.00   0.0   0.104   0.000   14.4    40    1.0   13.0   7.85 1.2329     ---   171    1     75.0   10 
27/09/20 11:50p    3.2    3.3    3.2    87    1.2   0.0   ---   0.00   0.0   ---    3.2    3.1    3.1  1023.7  0.00   0.0   0.105   0.000   14.3    40    0.9   12.9   7.85 1.2332     ---   183    1     80.3   10 
28/09/20 12:00a    3.2    3.2    3.2    87    1.2   0.0   ---   0.00   0.0   ---    3.2    3.1    3.1  1023.7  0.00   0.0   0.105   0.000   14.3    40    0.9   12.9   7.85 1.2332     ---   171    1     75.0   10 
28/09/20 12:10a    3.2    3.2    3.2    87    1.2   0.0   ---   0.00   0.0   ---    3.2    3.1    3.1  1023.7  0.00   0.0   0.105   0.000   14.3    40    0.8   12.8   7.85 1.2335     ---   173    1     75.9   10 
28/09/20 12:20a    3.1    3.2    3.1    88    1.3   0.0   ---   0.00   0.0   ---    3.1    3.1    3.1  1023.6  0.00   0.0   0.106   0.000   14.2    40    0.7   12.8   7.85 1.2339     ---   172    1     75.4   10 
28/09/20 12:30a    3.0    3.1    3.0    88    1.2   0.0   ---   0.00   0.0   ---    3.0    2.9    2.9  1023.5  0.00   0.0   0.106   0.000   14.1    40    0.7   12.7   7.85 1.2341     ---   176    1     77.2   10 
28/09/20 12:40a    2.9    3.0    2.9    88    1.2   0.0   ---   0.00   0.0   ---    2.9    2.9    2.9  1023.5  0.00   0.0   0.107   0.000   14.1    40    0.7   12.7   7.85 1.2341     ---   178    1     78.1   10 
28/09/20 12:50a    2.8    2.9    2.8    88    1.0   0.0   ---   0.00   0.0   ---    2.8    2.8    2.8  1023.5  0.00   0.0   0.108   0.000   14.0    40    0.6   12.6   7.85 1.2346     ---   167    1     73.2   10 
28/09/20  1:00a    2.8    2.8    2.8    88    1.0   0.0   ---   0.00   0.0   ---    2.8    2.7    2.7  1023.5  0.00   0.0   0.108   0.000   13.9    40    0.5   12.6   7.85 1.2349     ---   151    1     66.2   10 
28/09/20  1:10a    2.6    2.8    2.6    88    0.8   0.0   ---   0.00   0.0   ---    2.6    2.6    2.6  1023.5  0.00   0.0   0.109   0.000   13.8    40    0.4   12.4   7.85 1.2354     ---   140    1     61.4   10 
28/09/20  1:20a    2.4    2.6    2.4    88    0.6   0.0   ---   0.00   0.0   ---    2.4    2.3    2.3  1023.6  0.00   0.0   0.111   0.000   13.8    40    0.4   12.4   7.85 1.2355     ---   176    1     77.2   10 
28/09/20  1:30a    2.2    2.4    2.2    89    0.6   0.0   ---   0.00   0.0   ---    2.2    2.2    2.2  1023.4  0.00   0.0   0.112   0.000   13.8    40    0.4   12.4   7.85 1.2355     ---   181    1     79.4   10 
28/09/20  1:40a    2.2    2.2    2.2    89    0.5   0.0   ---   0.00   0.0   ---    2.2    2.1    2.1  1023.4  0.00   0.0   0.112   0.000   13.7    40    0.3   12.3   7.85 1.2360     ---   176    1     77.2   10 
28/09/20  1:50a    2.0    2.2    2.0    89    0.4   0.0   ---   0.00   0.0   ---    2.0    1.9    1.9  1023.2  0.00   0.0   0.113   0.000   13.6    40    0.2   12.2   7.85 1.2361     ---   175    1     76.8   10 
28/09/20  2:00a    1.7    2.0    1.7    89    0.1   0.0   ---   0.00   0.0   ---    1.7    1.7    1.7  1023.3  0.00   0.0   0.115   0.000   13.6    40    0.2   12.2   7.85 1.2362     ---   140    1     61.4   10 
28/09/20  2:10a    1.6    1.7    1.6    89   -0.1   0.0   ---   0.00   0.0   ---    1.6    1.5    1.5  1023.3  0.00   0.0   0.117   0.000   13.6    40    0.2   12.2   7.85 1.2364     ---   178    1     78.1   10 
28/09/20  2:20a    1.3    1.6    1.3    89   -0.3   0.0   ---   0.00   0.0   ---    1.3    1.2    1.2  1023.1  0.00   0.0   0.118   0.000   13.4    40    0.1   12.1   7.85 1.2368     ---   172    1     75.4   10 
28/09/20  2:30a    1.2    1.3    1.2    89   -0.4   0.0   ---   0.00   0.0   ---    1.2    1.1    1.1  1023.3  0.00   0.0   0.119   0.000   13.4    40    0.0   12.0   7.85 1.2373     ---   175    1     76.8   10 
28/09/20  2:40a    1.1    1.2    1.1    89   -0.6   0.0   ---   0.00   0.0   ---    1.1    0.9    0.9  1023.3  0.00   0.0   0.120   0.000   13.3    40   -0.1   11.9   7.85 1.2379     ---   167    1     73.2   10 
28/09/20  2:50a    0.9    1.0    0.9    89   -0.7   0.0   ---   0.00   0.0   ---    0.9    0.8    0.8  1023.3  0.00   0.0   0.121   0.000   13.3    40   -0.1   11.9   7.85 1.2379     ---   172    1     75.4   10 
28/09/20  3:00a    0.8    0.9    0.8    89   -0.8   0.0   ---   0.00   0.0   ---    0.8    0.7    0.7  1023.3  0.00   0.0   0.122   0.000   13.2    40   -0.1   11.8   7.85 1.2381     ---   164    1     71.9   10 
28/09/20  3:10a    0.7    0.8    0.7    89   -0.9   0.0   ---   0.00   0.0   ---    0.7    0.6    0.6  1023.3  0.00   0.0   0.123   0.000   13.1    40   -0.2   11.8   7.85 1.2387     ---   152    1     66.7   10 
28/09/20  3:20a    0.6    0.7    0.6    89   -1.0   0.0   ---   0.00   0.0   ---    0.6    0.4    0.4  1023.4  0.00   0.0   0.123   0.000   13.1    40   -0.2   11.8   7.85 1.2388     ---    48    1     21.1   10 
28/09/20  3:30a    0.7    0.7    0.6    90   -0.8   0.0   ---   0.00   0.0   ---    0.7    0.6    0.6  1023.4  0.00   0.0   0.123   0.000   13.1    40   -0.3   11.7   7.85 1.2391     ---   150    1     65.8   10 
28/09/20  3:40a    0.6    0.7    0.6    90   -0.9   0.0   ---   0.00   0.0   ---    0.6    0.4    0.4  1023.4  0.00   0.0   0.123   0.000   12.9    40   -0.4   11.6   7.85 1.2396     ---   181    1     79.4   10 
28/09/20  3:50a    0.5    0.6    0.5    90   -1.0   0.0   ---   0.00   0.0   ---    0.5    0.4    0.4  1023.5  0.00   0.0   0.124   0.000   12.9    40   -0.4   11.6   7.85 1.2396     ---   178    1     78.1   10 
28/09/20  4:00a    0.3    0.5    0.3    90   -1.1   0.0   ---   0.00   0.0   ---    0.3    0.2    0.2  1023.5  0.00   0.0   0.125   0.000   12.9    40   -0.4   11.6   7.85 1.2399     ---   184    1     80.7   10 
28/09/20  4:10a    0.3    0.3    0.3    90   -1.1   0.0   ---   0.00   0.0   ---    0.3    0.2    0.2  1023.5  0.00   0.0   0.125   0.000   12.8    40   -0.5   11.5   7.85 1.2405     ---   175    1     76.8   10 
28/09/20  4:20a    0.2    0.3    0.2    90   -1.3   0.0   ---   0.00   0.0   ---    0.2    0.1    0.1  1023.6  0.00   0.0   0.126   0.000   12.7    40   -0.6   11.4   7.85 1.2408     ---   181    1     79.4   10 
28/09/20  4:30a    0.0    0.2    0.0    90   -1.4   0.0   ---   0.00   0.0   ---    0.0   -0.1   -0.1  1023.7  0.00   0.0   0.127   0.000   12.7    40   -0.6   11.4   7.85 1.2410     ---   178    1     78.1   10 
28/09/20  4:40a   -0.1    0.0   -0.1    90   -1.5   0.0   ---   0.00   0.0   ---   -0.1   -0.1   -0.1  1023.7  0.00   0.0   0.128   0.000   12.6    40   -0.7   11.3   7.86 1.2416     ---   180    1     78.9   10 
28/09/20  4:50a   -0.2   -0.2   -0.2    90   -1.6   0.0   ---   0.00   0.0   ---   -0.2   -0.2   -0.2  1023.8  0.00   0.0   0.128   0.000   12.6    40   -0.7   11.3   7.86 1.2420     ---   179    1     78.5   10 
28/09/20  5:00a   -0.2   -0.2   -0.2    91   -1.5   0.0   ---   0.00   0.0   ---   -0.2   -0.2   -0.2  1023.9  0.00   0.0   0.128   0.000   12.4    40   -0.8   11.2   7.86 1.2425     ---   179    1     78.5   10 
28/09/20  5:10a   -0.2   -0.2   -0.2    91   -1.5   0.0   ---   0.00   0.0   ---   -0.2   -0.3   -0.3  1023.9  0.00   0.0   0.129   0.000   12.4    40   -0.8   11.2   7.86 1.2425     ---   177    1     77.6   10 
28/09/20  5:20a   -0.2   -0.2   -0.2    91   -1.5   0.0   ---   0.00   0.0   ---   -0.2   -0.3   -0.3  1024.4  0.00   0.0   0.129   0.000   12.4    40   -0.9   11.2   7.86 1.2434     ---   162    1     71.1   10 
28/09/20  5:30a   -0.2   -0.2   -0.2    91   -1.5   0.0   ---   0.00   0.0   ---   -0.2   -0.3   -0.3  1024.5  0.00   0.0   0.129   0.000   12.3    40   -1.0   11.1   7.87 1.2441     ---   148    1     64.9   10 
28/09/20  5:40a   -0.4   -0.2   -0.4    91   -1.7   0.0   ---   0.00   0.0   ---   -0.4   -0.5   -0.5  1024.5  0.00   0.0   0.130   0.000   12.2    40   -1.0   11.0   7.87 1.2444     ---   150    1     65.8   10 
28/09/20  5:50a   -0.5   -0.4   -0.5    91   -1.8   0.0   ---   0.00   0.0   ---   -0.5   -0.6   -0.6  1024.8  0.00   0.0   0.131   0.000   12.2    40   -1.0   11.0   7.87 1.2448     ---   188    1     82.5   10 
28/09/20  6:00a   -0.6   -0.5   -0.6    91   -1.8   0.0   ---   0.00   0.0   ---   -0.6   -0.7   -0.7  1025.1  0.00   0.0   0.131   0.000   12.1    40   -1.1   10.9   7.87 1.2456     ---   177    1     77.6   10 
28/09/20  6:10a   -0.7   -0.7   -0.7    91   -2.0   0.0   ---   0.00   0.0   ---   -0.7   -0.8   -0.8  1025.1  0.00   0.0   0.132   0.000   12.1    39   -1.5   10.8   7.70 1.2460     ---   173    1     75.9   10 
28/09/20  6:20a   -0.3   -0.3   -0.7    92   -1.5   0.0   ---   0.00   0.0   ---   -0.3   -0.4   -0.4  1025.4  0.00   0.0   0.130   0.000   12.1    39   -1.5   10.8   7.70 1.2465     ---   181    1     79.4   10 
28/09/20  6:30a   -0.1   -0.1   -0.3    92   -1.2   0.0   ---   0.00   0.0   ---   -0.1   -0.1   -0.1  1025.6  0.00   0.0   0.128   0.000   12.1    39   -1.5   10.8   7.70 1.2467     ---   180    1     78.9   10 
28/09/20  6:40a    0.1    0.1   -0.1    92   -1.0   0.0   ---   0.00   0.0   ---    0.1    0.1    0.1  1025.6  0.00   0.0   0.127   0.000   12.1    40   -1.2   10.8   7.88 1.2466     ---   171    1     75.0   10 
28/09/20  6:50a    0.4    0.4    0.1    93   -0.6   0.0   ---   0.00   0.0   ---    0.4    0.4    0.4  1025.9  0.00   0.0   0.124   0.000   12.2    39   -1.3   10.9   7.69 1.2463     ---   177    1     77.6   10 
28/09/20  7:00a    1.3    1.3    0.4    95    0.6   0.0   ---   0.00   0.0   ---    1.3    1.3    1.3  1025.8  0.00   0.0   0.118   0.000   12.4    39   -1.2   11.1   7.68 1.2454     ---   179    1     78.5   10 
28/09/20  7:10a    2.3    2.3    1.3    95    1.6   0.0   ---   0.00   0.0   ---    2.3    2.3    2.3  1025.8  0.00   0.0   0.111   0.000   12.6    39   -1.0   11.3   7.66 1.2443     ---   179    1     78.5   10 
28/09/20  7:20a    3.0    3.0    2.4    95    2.3   0.0   ---   0.00   0.0   ---    3.0    3.0    3.0  1026.1  0.00   0.0   0.106   0.000   12.9    39   -0.7   11.6   7.65 1.2430     ---   176    1     77.2   10 
28/09/20  7:30a    3.7    3.7    3.1    95    2.9   0.0   ---   0.00   0.0   ---    3.7    3.7    3.7  1025.9  0.00   0.0   0.102   0.000   13.2    39   -0.5   11.8   7.65 1.2414     ---   166    1     72.8   10 
28/09/20  7:40a    4.2    4.2    3.7    95    3.5   0.0   ---   0.00   0.0   ---    4.2    4.3    4.3  1025.9  0.00   0.0   0.098   0.000   13.6    39   -0.2   12.1   7.65 1.2398     ---   148    1     64.9   10 
28/09/20  7:50a    4.8    4.8    4.3    95    4.1   0.0   ---   0.00   0.0   ---    4.8    4.9    4.9  1025.8  0.25   0.0   0.094   0.000   13.8    38   -0.3   12.3   7.49 1.2389     ---   158    1     69.3   10 
28/09/20  8:00a    5.2    5.2    4.8    95    4.5   0.0   ---   0.00   0.0   ---    5.2    5.3    5.3  1025.8  0.00   0.0   0.091   0.000   14.1    38   -0.0   12.6   7.50 1.2373     ---   186    1     81.6   10 
28/09/20  8:10a    5.8    5.8    5.2    95    5.0   0.0   ---   0.00   0.0   ---    5.8    5.8    5.8  1025.8  0.00   0.0   0.087   0.000   14.3    38    0.2   12.8   7.51 1.2362     ---   178    1     78.1   10 
28/09/20  8:20a    6.3    6.3    5.8    92    5.1   0.0   ---   0.00   0.0   ---    6.3    6.3    6.3  1025.9  0.00   0.0   0.084   0.000   14.6    37    0.1   13.0   7.35 1.2351     ---   176    1     77.2   10 
28/09/20  8:30a    7.0    7.0    6.3    89    5.3   0.0   ---   0.00   0.0   ---    7.0    7.1    7.1  1025.8  0.00   0.0   0.079   0.000   14.8    37    0.2   13.2   7.35 1.2342     ---   169    1     74.1   10 
28/09/20  8:40a    7.8    7.8    7.1    87    5.8   0.0   ---   0.00   0.0   ---    7.8    7.8    7.8  1025.8  0.00   0.0   0.073   0.000   14.9    37    0.4   13.3   7.35 1.2334     ---   174    1     76.3   10 
28/09/20  8:50a    8.6    8.6    7.9    84    6.1   0.0   ---   0.00   0.0   ---    8.6    8.6    8.6  1025.6  0.00   0.0   0.068   0.000   15.1    37    0.5   13.5   7.35 1.2324     ---   169    1     74.1   10 
28/09/20  9:00a    9.3    9.3    8.6    79    5.8   0.0   ---   0.00   0.0   ---    9.3    9.2    9.2  1025.3  0.00   0.0   0.063   0.000   15.3    36    0.3   13.6   7.24 1.2315     ---   172    1     75.4   10 
28/09/20  9:10a    9.8    9.8    9.3    77    6.0   0.0   ---   0.00   0.0   ---    9.8    9.8    9.8  1025.3  0.00   0.0   0.059   0.000   15.4    36    0.4   13.8   7.25 1.2307     ---   176    1     77.2   10 
28/09/20  9:20a   10.8   10.8    9.9    72    5.9   0.0   ---   0.00   0.0   ---   10.8   10.5   10.5  1025.4  0.00   0.0   0.052   0.000   15.6    36    0.5   13.9   7.25 1.2303     ---   148    1     64.9   10 
28/09/20  9:30a   11.4   11.4   10.8    67    5.5   0.0   ---   0.00   0.0   ---   11.4   11.0   11.0  1025.3  0.00   0.0   0.048   0.000   15.7    36    0.7   14.1   7.24 1.2294     ---   133    1     58.3   10 
28/09/20  9:40a   12.2   12.2   11.5    63    5.3   0.0   ---   0.00   0.0   ---   12.2   11.6   11.6  1025.3  0.00   0.0   0.043   0.000   15.8    36    0.7   14.1   7.24 1.2291     ---   182    1     79.8   10 
28/09/20  9:50a   12.9   12.9   12.2    61    5.5   0.0   ---   0.00   0.0   ---   12.9   12.2   12.2  1025.1  0.00   0.0   0.038   0.000   15.9    36    0.8   14.2   7.24 1.2283     ---   163    1     71.5   10 
28/09/20 10:00a   13.2   13.2   12.9    61    5.8   0.0   ---   0.00   0.0   ---   13.2   12.5   12.5  1025.0  0.00   0.0   0.036   0.000   15.9    36    0.8   14.2   7.24 1.2282     ---   170    1     74.6   10 
28/09/20 10:10a   13.2   13.2   13.2    53    3.8   0.0   ---   0.00   0.0   ---   13.2   12.3   12.3  1025.0  0.00   0.0   0.035   0.000   16.0    36    0.9   14.3   7.23 1.2276     ---   172    1     75.4   10 
28/09/20 10:20a   14.1   14.1   13.2    59    6.2   0.0   ---   0.00   0.0   ---   14.1   13.3   13.3  1025.0  0.00   0.0   0.030   0.000   16.0    36    0.9   14.3   7.23 1.2276     ---   166    1     72.8   10 
28/09/20 10:30a   14.7   14.7   14.1    53    5.2   0.0   ---   0.00   0.0   ---   14.7   13.7   13.7  1024.5  0.00   0.0   0.025   0.000   16.1    36    1.0   14.3   7.23 1.2268     ---   168    1     73.7   10 
28/09/20 10:40a   14.6   14.7   14.6    49    4.0   0.0   ---   0.00   0.0   ---   14.6   13.4   13.4  1024.5  0.00   0.0   0.026   0.000   16.1    36    1.0   14.3   7.23 1.2268     ---   169    1     74.1   10 
28/09/20 10:50a   15.0   15.0   14.6    47    3.8   0.0   ---   0.00   0.0   ---   15.0   13.8   13.8  1024.4  0.00   0.0   0.023   0.000   16.1    36    1.0   14.3   7.23 1.2266     ---   144    1     63.2   10 
28/09/20 11:00a   15.1   15.1   15.0    45    3.2   0.0   ---   0.00   0.0   ---   15.1   13.8   13.8  1024.3  0.00   0.0   0.023   0.000   16.1    36    1.0   14.3   7.23 1.2265     ---   133    1     58.3   10 
28/09/20 11:10a   15.1   15.1   15.0    46    3.5   0.0   ---   0.00   0.0   ---   15.1   13.8   13.8  1024.3  0.00   0.0   0.023   0.000   16.2    36    1.1   14.4   7.23 1.2260     ---   178    1     78.1   10